Johnsburg, IL

12:07 AM CST on December 05, 2016 (GMT -0600)
Pistakee Bay | | Change Station

Elev 742 ft 42.37 °N, 88.22 °W | Updated 2 minutes ago

Overcast
Overcast
32.3 °F
Feels Like 32 °F
N
0.0
Wind Variable Wind from ESE
Gusts 0.0 mph

Today
High -- | Low -- °F
--% Chance of Precip.
Yesterday
High -- | Low -- °F
Precip. -- in
Pressure 29.93 in
Visibility 6.0 miles
Clouds Overcast 500 ft
Windchill 32 °F
Dew Point 32 °F
Humidity 97%
Rainfall 0.00 in
Snow Depth Not available.
7:07 AM 4:20 PM
Waxing Crescent, 28% visible
METAR KUGN 050555Z 25007KT 200V290 6SM BR OVC005 00/M01 A2990 RMK AO2 SLP135 60000 T00001011 10000 21011 400111017 53011 $
Pressure 29.93 in
Visibility 6.0 miles
Clouds Overcast 500 ft
Windchill 32 °F
Dew Point 32 °F
Humidity 97%
Rainfall 0.00 in
Snow Depth Not available.
7:07 AM 4:20 PM
Waxing Crescent, 28% visible
METAR KUGN 050555Z 25007KT 200V290 6SM BR OVC005 00/M01 A2990 RMK AO2 SLP135 60000 T00001011 10000 21011 400111017 53011 $

10-Day Weather Forecast

Almanac

Astronomy

Dec. 05, 2016 Rise Set
Actual Time
Civil Twilight
Nautical Twilight
Astronomical Twilight
Moon
Length of Visible Light
Length of Day
Tomorrow will be .
, % of the Moon is Illuminated

Today's Extremes

State Highs State Lows

Community

WunderPhotos

Upload Photos

1,955,771 photos uploaded!

WunderBlog® & News

Nearby

Air Quality

  Air Quality AQ Index Pollutant
Not available.

Snow Depth

Station Depth Elevation

Earthquake Activity

City Distance Mag. Time & Date
Minimum magnitude displayed is 2.5.

Coastal Water Temperatures

Place Temperature

Stations

Nearby Weather Stations

Station Location Temp. Windchill Dew Point Humidity Wind Precip. Elev Updated Type
                   

Watches & Warnings

There are currently no watches in effect.